Time;durP1;ratioP1;P1;durP2;ratioP2;P2;SDS_P1;SDS_P2;PMS_P1;PMS_P2;Temp;Humidity;BMP_temperature;BMP_pressure;BME280_temperature;BME280_humidity;BME280_pressure;Samples;Min_cycle;Max_cycle;Signal;HPM_P1;HPM_P2
2022/03/11 00:01:13;;;;;;;8.63;7.83;;;;;;;;;;6180604;28;20761;-72
2022/03/11 00:04:34;;;;;;;9.47;8.57;;;;;;;;;;6182864;28;20325;-71
2022/03/11 00:07:55;;;;;;;10.47;8.77;;;;;;;;;;6183621;28;20225;-71
2022/03/11 00:11:16;;;;;;;10.73;8.57;;;;;;;;;;6180794;28;20773;-70
2022/03/11 00:14:37;;;;;;;10.03;8.70;;;;;;;;;;6180943;28;20222;-70
2022/03/11 00:17:59;;;;;;;8.93;8.03;;;;;;;;;;6181694;28;20234;-69
2022/03/11 00:21:20;;;;;;;9.20;8.37;;;;;;;;;;6175379;28;20242;-70
2022/03/11 00:24:41;;;;;;;9.57;8.43;;;;;;;;;;6180096;28;20222;-70
2022/03/11 00:28:02;;;;;;;11.13;9.03;;;;;;;;;;6179836;28;20794;-71
2022/03/11 00:31:23;;;;;;;9.50;8.50;;;;;;;;;;6180121;28;20230;-71
2022/03/11 00:34:45;;;;;;;10.80;9.70;;;;;;;;;;6176916;28;20481;-70
2022/03/11 00:38:06;;;;;;;10.10;8.97;;;;;;;;;;6180989;28;20257;-70
2022/03/11 00:41:27;;;;;;;9.07;7.93;;;;;;;;;;6161222;28;20230;-70
2022/03/11 00:44:47;;;;;;;9.87;8.97;;;;;;;;;;6178952;28;20242;-71
2022/03/11 00:48:08;;;;;;;8.80;7.73;;;;;;;;;;6178238;28;20230;-71
2022/03/11 00:51:30;;;;;;;9.63;8.77;;;;;;;;;;6176762;28;20608;-70
2022/03/11 00:54:51;;;;;;;10.63;8.30;;;;;;;;;;6179621;28;20233;-70
2022/03/11 00:58:12;;;;;;;9.13;7.60;;;;;;;;;;6176236;28;20222;-71
2022/03/11 01:01:33;;;;;;;10.20;8.77;;;;;;;;;;6177830;28;20233;-71
2022/03/11 01:04:54;;;;;;;9.23;8.40;;;;;;;;;;6174410;28;20225;-71
2022/03/11 01:08:16;;;;;;;8.90;7.80;;;;;;;;;;6182386;28;20915;-70
2022/03/11 01:11:37;;;;;;;9.40;7.93;;;;;;;;;;6177629;28;20225;-70
2022/03/11 01:14:58;;;;;;;9.97;8.87;;;;;;;;;;6178564;28;20238;-71
2022/03/11 01:18:19;;;;;;;10.13;8.60;;;;;;;;;;6173755;28;20481;-70
2022/03/11 01:21:40;;;;;;;7.80;7.10;;;;;;;;;;6179133;28;20321;-70
2022/03/11 01:25:03;;;;;;;8.77;7.60;;;;;;;;;;6176431;28;20253;-70
2022/03/11 01:28:24;;;;;;;8.73;7.43;;;;;;;;;;6177562;28;20226;-70
2022/03/11 01:31:45;;;;;;;10.10;9.00;;;;;;;;;;6180014;28;20403;-70
2022/03/11 01:35:07;;;;;;;9.97;7.20;;;;;;;;;;6178905;28;20316;-71
2022/03/11 01:38:28;;;;;;;9.03;8.00;;;;;;;;;;6174736;28;20233;-71
2022/03/11 01:41:50;;;;;;;8.03;7.23;;;;;;;;;;6181225;28;20229;-70
2022/03/11 01:45:11;;;;;;;8.40;7.37;;;;;;;;;;6181618;28;20226;-71
2022/03/11 01:48:32;;;;;;;9.60;7.97;;;;;;;;;;6172121;28;20238;-69
2022/03/11 01:51:53;;;;;;;8.43;7.07;;;;;;;;;;6177274;28;20238;-70
2022/03/11 01:55:15;;;;;;;8.83;8.03;;;;;;;;;;6179511;28;20324;-70
2022/03/11 01:58:39;;;;;;;9.53;7.97;;;;;;;;;;6177537;28;20230;-69
2022/03/11 02:02:00;;;;;;;8.43;7.37;;;;;;;;;;6177097;28;20221;-70
2022/03/11 02:05:21;;;;;;;9.40;7.63;;;;;;;;;;6170999;28;20243;-70
2022/03/11 02:08:42;;;;;;;9.07;7.77;;;;;;;;;;6178091;28;20245;-71
2022/03/11 02:12:04;;;;;;;9.27;8.30;;;;;;;;;;6167786;28;20230;-70
2022/03/11 02:15:26;;;;;;;8.80;7.13;;;;;;;;;;6177016;28;20320;-69
2022/03/11 02:18:48;;;;;;;9.03;7.97;;;;;;;;;;6173352;28;20238;-70
2022/03/11 02:22:09;;;;;;;8.00;7.20;;;;;;;;;;6176214;28;20739;-70
2022/03/11 02:25:31;;;;;;;8.50;7.13;;;;;;;;;;6175475;28;20488;-70
2022/03/11 02:28:53;;;;;;;9.43;8.53;;;;;;;;;;6181975;28;20226;-70
2022/03/11 02:32:14;;;;;;;9.03;7.23;;;;;;;;;;6179024;28;20226;-70
2022/03/11 02:35:35;;;;;;;8.73;7.50;;;;;;;;;;6176339;28;20471;-70
2022/03/11 02:38:56;;;;;;;9.67;8.27;;;;;;;;;;6175699;28;20251;-71
2022/03/11 02:42:19;;;;;;;8.80;7.03;;;;;;;;;;6179082;28;20238;-71
2022/03/11 02:45:40;;;;;;;8.40;7.53;;;;;;;;;;6179107;28;20622;-70
2022/03/11 02:49:01;;;;;;;8.83;7.93;;;;;;;;;;6178260;28;20671;-70
2022/03/11 02:52:22;;;;;;;8.80;7.77;;;;;;;;;;6162985;28;20238;-70
2022/03/11 02:55:44;;;;;;;8.87;7.93;;;;;;;;;;6176874;28;20225;-70
2022/03/11 02:59:06;;;;;;;8.37;6.97;;;;;;;;;;6182084;28;20225;-70
2022/03/11 03:02:27;;;;;;;8.47;7.67;;;;;;;;;;6183415;28;20230;-70
2022/03/11 03:05:48;;;;;;;10.30;7.80;;;;;;;;;;6181984;28;20222;-70
2022/03/11 03:09:09;;;;;;;9.93;8.40;;;;;;;;;;6184980;28;20320;-70
2022/03/11 03:12:29;;;;;;;8.53;7.70;;;;;;;;;;6178468;28;20344;-70
2022/03/11 03:15:52;;;;;;;8.87;7.93;;;;;;;;;;6175612;28;20226;-70
2022/03/11 03:19:13;;;;;;;9.20;8.10;;;;;;;;;;6182474;28;20309;-70
2022/03/11 03:22:33;;;;;;;11.17;9.07;;;;;;;;;;6181670;28;20249;-71
2022/03/11 03:25:55;;;;;;;11.00;8.53;;;;;;;;;;6180898;28;20238;-71
2022/03/11 03:29:16;;;;;;;9.60;8.37;;;;;;;;;;6180112;28;20831;-71
2022/03/11 03:32:41;;;;;;;9.07;8.10;;;;;;;;;;6178429;28;20238;-71
2022/03/11 03:36:02;;;;;;;10.20;8.83;;;;;;;;;;6179437;28;20238;-70
2022/03/11 03:39:23;;;;;;;10.60;8.80;;;;;;;;;;6179251;28;20809;-70
2022/03/11 03:42:47;;;;;;;10.33;9.20;;;;;;;;;;6180894;28;20218;-69
2022/03/11 03:46:09;;;;;;;11.10;8.90;;;;;;;;;;6183136;28;20627;-71
2022/03/11 03:49:31;;;;;;;10.57;8.70;;;;;;;;;;6179114;28;20230;-70
2022/03/11 03:52:52;;;;;;;14.10;10.50;;;;;;;;;;6183503;28;20229;-70
2022/03/11 03:56:13;;;;;;;11.37;9.30;;;;;;;;;;6178410;28;20628;-70
2022/03/11 03:59:34;;;;;;;13.23;9.67;;;;;;;;;;6178304;28;20237;-70
2022/03/11 04:02:55;;;;;;;9.57;8.57;;;;;;;;;;6180709;28;24405;-70
2022/03/11 04:06:17;;;;;;;10.60;9.17;;;;;;;;;;6177101;28;20656;-70
2022/03/11 04:09:38;;;;;;;10.30;8.70;;;;;;;;;;6179065;28;20333;-70
2022/03/11 04:12:59;;;;;;;14.23;9.87;;;;;;;;;;6184291;28;20548;-70
2022/03/11 04:16:20;;;;;;;12.80;10.40;;;;;;;;;;6176688;28;20237;-70
2022/03/11 04:19:41;;;;;;;9.70;8.70;;;;;;;;;;6180361;28;20256;-70
2022/03/11 04:23:03;;;;;;;10.90;9.80;;;;;;;;;;6177069;28;21164;-71
2022/03/11 04:26:24;;;;;;;11.20;10.10;;;;;;;;;;6176730;28;20680;-70
2022/03/11 04:29:45;;;;;;;12.33;9.77;;;;;;;;;;6176007;28;20226;-70
2022/03/11 04:33:05;;;;;;;10.27;9.17;;;;;;;;;;6174419;28;20227;-69
2022/03/11 04:36:27;;;;;;;14.27;9.50;;;;;;;;;;6177135;28;20237;-70
2022/03/11 04:39:49;;;;;;;11.27;9.57;;;;;;;;;;6177221;28;20592;-70
2022/03/11 04:43:10;;;;;;;10.87;9.07;;;;;;;;;;6175919;28;20221;-71
2022/03/11 04:46:34;;;;;;;12.70;9.43;;;;;;;;;;6175626;28;20229;-71
2022/03/11 04:49:55;;;;;;;10.93;9.83;;;;;;;;;;6183187;28;20242;-70
2022/03/11 04:53:16;;;;;;;11.60;10.40;;;;;;;;;;6180421;28;20234;-70
2022/03/11 04:56:38;;;;;;;10.97;9.47;;;;;;;;;;6179390;28;20229;-71
2022/03/11 04:59:59;;;;;;;17.10;9.83;;;;;;;;;;6177612;28;20226;-70
2022/03/11 05:03:20;;;;;;;10.20;8.17;;;;;;;;;;6174255;28;20909;-70
2022/03/11 05:06:43;;;;;;;11.53;10.03;;;;;;;;;;6177411;28;20682;-70
2022/03/11 05:10:05;;;;;;;12.50;9.37;;;;;;;;;;6178360;28;20270;-70
2022/03/11 05:13:27;;;;;;;11.47;9.20;;;;;;;;;;6175463;28;20512;-70
2022/03/11 05:16:48;;;;;;;10.17;8.83;;;;;;;;;;6181574;28;20635;-70
2022/03/11 05:20:11;;;;;;;9.70;8.70;;;;;;;;;;6179494;28;20242;-71
2022/03/11 05:23:32;;;;;;;11.40;9.90;;;;;;;;;;6182424;28;20257;-71
2022/03/11 05:26:52;;;;;;;11.67;8.90;;;;;;;;;;6179120;28;20226;-71
2022/03/11 05:30:14;;;;;;;11.30;8.83;;;;;;;;;;6178942;28;20230;-70
2022/03/11 05:33:35;;;;;;;10.70;9.30;;;;;;;;;;6166586;28;20230;-71
2022/03/11 05:36:56;;;;;;;10.20;8.93;;;;;;;;;;6176442;28;20226;-70
2022/03/11 05:40:17;;;;;;;12.67;9.43;;;;;;;;;;6179994;28;20222;-70
2022/03/11 05:43:39;;;;;;;13.23;9.40;;;;;;;;;;6179257;28;20230;-71
2022/03/11 05:47:01;;;;;;;9.87;8.80;;;;;;;;;;6174914;28;20234;-69
2022/03/11 05:50:21;;;;;;;15.47;11.40;;;;;;;;;;6175627;28;20226;-71
2022/03/11 05:53:42;;;;;;;10.83;9.70;;;;;;;;;;6177048;28;20607;-71
2022/03/11 05:57:03;;;;;;;10.20;9.17;;;;;;;;;;6178001;28;20237;-70
2022/03/11 06:00:25;;;;;;;11.50;9.03;;;;;;;;;;6179210;28;20620;-70
2022/03/11 06:03:47;;;;;;;11.30;9.77;;;;;;;;;;6176161;28;20615;-71
2022/03/11 06:07:08;;;;;;;13.47;9.63;;;;;;;;;;6179421;28;20234;-70
2022/03/11 06:10:29;;;;;;;11.27;9.33;;;;;;;;;;6175634;28;20225;-71
2022/03/11 06:13:50;;;;;;;11.77;8.60;;;;;;;;;;6178140;28;20276;-71
2022/03/11 06:17:11;;;;;;;12.07;10.43;;;;;;;;;;6179098;28;20217;-72
2022/03/11 06:20:35;;;;;;;14.00;9.87;;;;;;;;;;6180939;28;20233;-70
2022/03/11 06:23:56;;;;;;;10.13;9.10;;;;;;;;;;6182043;28;20234;-70
2022/03/11 06:27:17;;;;;;;11.53;9.30;;;;;;;;;;6180956;28;20596;-70
2022/03/11 06:30:38;;;;;;;12.80;9.03;;;;;;;;;;6180837;28;20226;-70
2022/03/11 06:33:59;;;;;;;12.63;9.70;;;;;;;;;;6179748;28;20241;-71
2022/03/11 06:37:21;;;;;;;10.93;9.47;;;;;;;;;;6179058;28;20643;-70
2022/03/11 06:40:42;;;;;;;10.70;9.60;;;;;;;;;;6181464;28;20230;-70
2022/03/11 06:44:03;;;;;;;9.73;8.40;;;;;;;;;;6179269;28;20234;-73
2022/03/11 06:47:24;;;;;;;12.17;9.37;;;;;;;;;;6178221;28;20234;-72
2022/03/11 06:50:45;;;;;;;10.13;8.80;;;;;;;;;;6179822;28;20254;-73
2022/03/11 06:54:09;;;;;;;11.80;9.23;;;;;;;;;;6178817;28;20226;-73
2022/03/11 06:57:30;;;;;;;11.37;8.97;;;;;;;;;;6175726;28;20570;-71
2022/03/11 07:00:51;;;;;;;11.73;10.17;;;;;;;;;;6174619;28;20234;-74
2022/03/11 07:04:12;;;;;;;11.40;9.30;;;;;;;;;;6176403;28;20526;-73
2022/03/11 07:07:33;;;;;;;13.17;9.77;;;;;;;;;;6177970;28;20833;-72
2022/03/11 07:10:55;;;;;;;11.93;9.47;;;;;;;;;;6183882;28;20506;-71
2022/03/11 07:14:16;;;;;;;10.53;9.30;;;;;;;;;;6176830;28;20221;-72
2022/03/11 07:17:37;;;;;;;11.80;10.60;;;;;;;;;;6174676;28;20242;-71
2022/03/11 07:21:00;;;;;;;12.83;9.00;;;;;;;;;;6176777;28;20538;-71
2022/03/11 07:24:21;;;;;;;12.27;11.00;;;;;;;;;;6174076;28;20237;-71
2022/03/11 07:27:45;;;;;;;11.93;9.03;;;;;;;;;;6169590;28;20310;-72
2022/03/11 07:31:06;;;;;;;12.97;9.87;;;;;;;;;;6175046;28;20305;-71
2022/03/11 07:34:27;;;;;;;12.30;9.50;;;;;;;;;;6170530;28;20234;-71
2022/03/11 07:37:47;;;;;;;10.07;8.37;;;;;;;;;;6177406;28;20242;-71
2022/03/11 07:41:10;;;;;;;14.97;9.17;;;;;;;;;;6171620;28;20222;-73
2022/03/11 07:44:33;;;;;;;12.47;9.90;;;;;;;;;;6178848;28;20586;-74
2022/03/11 07:47:54;;;;;;;12.30;10.07;;;;;;;;;;6177474;28;20230;-72
2022/03/11 07:51:16;;;;;;;15.20;9.97;;;;;;;;;;6180710;28;20230;-71
2022/03/11 07:54:37;;;;;;;16.63;11.67;;;;;;;;;;6172100;28;20726;-73
2022/03/11 07:57:57;;;;;;;14.40;9.73;;;;;;;;;;6179886;28;20238;-74
2022/03/11 08:01:20;;;;;;;10.93;9.83;;;;;;;;;;6179568;28;20238;-70
2022/03/11 08:04:40;;;;;;;11.47;8.77;;;;;;;;;;6181642;28;20316;-71
2022/03/11 08:08:01;;;;;;;10.93;9.03;;;;;;;;;;6178008;28;20526;-71
2022/03/11 08:11:22;;;;;;;10.83;9.73;;;;;;;;;;6173300;28;21148;-72
2022/03/11 08:14:43;;;;;;;10.73;8.40;;;;;;;;;;6176286;28;20261;-71
2022/03/11 08:18:05;;;;;;;12.60;8.47;;;;;;;;;;6175365;28;20230;-72
2022/03/11 08:21:26;;;;;;;11.17;8.10;;;;;;;;;;6178449;28;20268;-73
2022/03/11 08:24:47;;;;;;;11.00;8.93;;;;;;;;;;6177636;28;20230;-70
2022/03/11 08:28:10;;;;;;;10.87;9.77;;;;;;;;;;6176181;28;20230;-74
2022/03/11 08:31:32;;;;;;;11.43;8.90;;;;;;;;;;6178073;28;20608;-72
2022/03/11 08:34:55;;;;;;;11.00;9.07;;;;;;;;;;6172540;28;20881;-72
2022/03/11 08:38:16;;;;;;;11.10;8.47;;;;;;;;;;6172486;28;20233;-70
2022/03/11 08:41:36;;;;;;;14.20;8.37;;;;;;;;;;6177144;28;20234;-70
2022/03/11 08:44:59;;;;;;;13.20;8.77;;;;;;;;;;6176597;28;20744;-67
2022/03/11 08:48:20;;;;;;;12.93;9.57;;;;;;;;;;6172034;28;20576;-73
2022/03/11 08:51:43;;;;;;;12.27;7.77;;;;;;;;;;6177392;28;20229;-76
2022/03/11 08:55:05;;;;;;;10.93;8.93;;;;;;;;;;6178532;28;20566;-72
2022/03/11 08:58:26;;;;;;;11.47;8.67;;;;;;;;;;6174666;28;20230;-73
2022/03/11 09:01:47;;;;;;;11.93;9.83;;;;;;;;;;6178939;28;20686;-71
2022/03/11 09:05:09;;;;;;;9.93;8.40;;;;;;;;;;6171705;28;20312;-71
2022/03/11 09:08:33;;;;;;;10.17;7.97;;;;;;;;;;6155255;28;20525;-74
2022/03/11 09:11:54;;;;;;;14.03;11.00;;;;;;;;;;6185691;28;20534;-70
2022/03/11 09:15:15;;;;;;;10.23;8.83;;;;;;;;;;6172794;28;20235;-73
2022/03/11 09:18:36;;;;;;;10.07;7.90;;;;;;;;;;6181144;28;20233;-71
2022/03/11 09:21:57;;;;;;;16.70;9.80;;;;;;;;;;6181076;28;20231;-73
2022/03/11 09:25:19;;;;;;;14.27;9.30;;;;;;;;;;6184860;28;20217;-76
2022/03/11 09:28:39;;;;;;;11.90;8.27;;;;;;;;;;6187301;28;20229;-72
2022/03/11 09:32:00;;;;;;;9.90;7.97;;;;;;;;;;6178375;28;20254;-73
2022/03/11 09:35:21;;;;;;;11.80;7.00;;;;;;;;;;6183850;28;20237;-74
2022/03/11 09:38:42;;;;;;;9.90;7.90;;;;;;;;;;6185604;28;20222;-73
2022/03/11 09:42:05;;;;;;;10.33;8.47;;;;;;;;;;6185646;28;20610;-75
2022/03/11 09:45:27;;;;;;;11.80;7.43;;;;;;;;;;6179837;28;20233;-72
2022/03/11 09:48:47;;;;;;;9.60;7.23;;;;;;;;;;6177837;28;20230;-72
2022/03/11 09:52:09;;;;;;;11.30;7.90;;;;;;;;;;6175748;28;20234;-71
2022/03/11 09:55:30;;;;;;;10.23;8.13;;;;;;;;;;6180011;28;20230;-71
2022/03/11 09:58:52;;;;;;;10.17;8.53;;;;;;;;;;6180557;28;20262;-73
2022/03/11 10:02:14;;;;;;;9.37;7.17;;;;;;;;;;6177940;28;20233;-72
2022/03/11 10:05:45;;;;;;;9.67;7.00;;;;;;;;;;6182534;28;20647;-69
2022/03/11 10:09:06;;;;;;;10.20;8.30;;;;;;;;;;6181378;28;20221;-72
2022/03/11 10:12:28;;;;;;;10.73;7.40;;;;;;;;;;6180718;28;20253;-71
2022/03/11 10:15:50;;;;;;;8.00;6.87;;;;;;;;;;6178554;28;20234;-73
2022/03/11 10:19:12;;;;;;;11.43;7.67;;;;;;;;;;6184607;28;20511;-72
2022/03/11 10:22:32;;;;;;;8.83;7.17;;;;;;;;;;6180552;28;20222;-71
2022/03/11 10:25:53;;;;;;;12.13;7.83;;;;;;;;;;6184038;28;20237;-75
2022/03/11 10:29:15;;;;;;;10.50;8.00;;;;;;;;;;6176172;28;20218;-71
2022/03/11 10:32:49;;;;;;;8.33;7.53;;;;;;;;;;6180134;28;20226;-74
2022/03/11 10:36:12;;;;;;;10.17;7.67;;;;;;;;;;6170470;28;20305;-71
2022/03/11 10:39:36;;;;;;;13.67;7.43;;;;;;;;;;6174783;28;20234;-73
2022/03/11 10:43:13;;;;;;;10.83;7.40;;;;;;;;;;6171212;28;20230;-70
2022/03/11 10:46:34;;;;;;;8.25;7.30;;;;;;;;;;6179295;28;20230;-72
2022/03/11 10:49:58;;;;;;;9.90;7.07;;;;;;;;;;6180585;28;20242;-72
2022/03/11 10:53:19;;;;;;;11.80;8.55;;;;;;;;;;6179531;28;20230;-71
2022/03/11 10:56:41;;;;;;;9.55;7.70;;;;;;;;;;6178485;28;20764;-72
2022/03/11 11:00:20;;;;;;;13.20;8.23;;;;;;;;;;6179371;28;20317;-70
2022/03/11 11:03:42;;;;;;;9.30;7.20;;;;;;;;;;6179096;28;20234;-73
2022/03/11 11:07:05;;;;;;;11.15;7.43;;;;;;;;;;6178976;28;20824;-73
2022/03/11 11:10:28;;;;;;;9.20;7.00;;;;;;;;;;6159991;28;20238;-72
2022/03/11 11:13:49;;;;;;;11.20;8.43;;;;;;;;;;6178294;28;20611;-74
2022/03/11 11:17:13;;;;;;;9.63;7.50;;;;;;;;;;6176875;28;20230;-71
2022/03/11 11:20:41;;;;;;;10.10;7.93;;;;;;;;;;6179249;28;20237;-75
2022/03/11 11:24:05;;;;;;;8.93;8.02;;;;;;;;;;6194314;28;20253;-74
2022/03/11 11:27:27;;;;;;;8.63;7.82;;;;;;;;;;6180273;28;20912;-74
2022/03/11 11:30:48;;;;;;;7.95;7.18;;;;;;;;;;6182954;28;20581;-72
2022/03/11 11:34:26;;;;;;;8.15;7.35;;;;;;;;;;6184984;28;20222;-72
2022/03/11 11:37:47;;;;;;;7.80;7.00;;;;;;;;;;6177770;28;20233;-72
2022/03/11 11:44:50;;;;;;;7.80;7.00;;;;;;;;;;6319221;27;20887;-73
2022/03/11 11:48:49;;;;;;;7.97;7.18;;;;;;;;;;6303887;28;20226;-73
2022/03/11 11:52:12;;;;;;;8.18;6.70;;;;;;;;;;6300456;28;20612;-78
2022/03/11 11:55:40;;;;;;;7.75;7.05;;;;;;;;;;6301115;28;20314;-78
2022/03/11 11:59:05;;;;;;;7.28;6.47;;;;;;;;;;6300544;28;20256;-73
2022/03/11 12:02:34;;;;;;;8.07;6.80;;;;;;;;;;6325831;28;20222;-75
2022/03/11 12:05:56;;;;;;;7.03;6.32;;;;;;;;;;6328413;28;20309;-70
2022/03/11 12:09:47;;;;;;;7.53;5.60;;;;;;;;;;6320492;28;20226;-72
2022/03/11 12:13:08;;;;;;;6.78;6.07;;;;;;;;;;6334643;27;20998;-74
2022/03/11 12:17:00;;;;;;;6.78;6.18;;;;;;;;;;6323239;28;20229;-72
2022/03/11 12:20:31;;;;;;;7.20;6.38;;;;;;;;;;6321973;28;20238;-72
2022/03/11 12:23:52;;;;;;;8.02;5.43;;;;;;;;;;6313613;28;20235;-72
2022/03/11 12:27:13;;;;;;;7.03;6.22;;;;;;;;;;6321420;28;20234;-74
2022/03/11 12:30:36;;;;;;;8.43;7.53;;;;;;;;;;6325179;28;20514;-73
2022/03/11 12:34:00;;;;;;;6.10;5.55;;;;;;;;;;6301518;28;20247;-73
2022/03/11 12:37:23;;;;;;;8.52;5.78;;;;;;;;;;6315918;27;20226;-73
2022/03/11 12:40:45;;;;;;;6.03;5.53;;;;;;;;;;6292239;28;20564;-73
2022/03/11 12:44:10;;;;;;;7.80;6.38;;;;;;;;;;6313302;27;20317;-72
2022/03/11 12:47:36;;;;;;;11.55;7.45;;;;;;;;;;6319423;28;20233;-73
2022/03/11 12:50:59;;;;;;;6.22;5.72;;;;;;;;;;6316400;27;20237;-74
2022/03/11 12:54:25;;;;;;;6.85;6.15;;;;;;;;;;6310990;27;20234;-73
2022/03/11 12:57:46;;;;;;;7.90;6.30;;;;;;;;;;6289499;28;20230;-74
2022/03/11 13:01:10;;;;;;;7.25;6.55;;;;;;;;;;6298261;28;20230;-73
2022/03/11 13:04:42;;;;;;;8.13;6.38;;;;;;;;;;6294141;28;20234;-72
2022/03/11 13:08:04;;;;;;;7.07;6.28;;;;;;;;;;6296225;28;20795;-73
2022/03/11 13:11:27;;;;;;;10.45;7.13;;;;;;;;;;6302724;28;20226;-72
2022/03/11 13:14:48;;;;;;;7.03;6.32;;;;;;;;;;6284961;28;20305;-72
2022/03/11 13:18:10;;;;;;;7.82;6.80;;;;;;;;;;6299688;28;20235;-72
2022/03/11 13:21:31;;;;;;;6.45;5.78;;;;;;;;;;6299162;28;20227;-71
2022/03/11 13:25:02;;;;;;;7.68;6.20;;;;;;;;;;6298546;28;20619;-71
2022/03/11 13:28:27;;;;;;;6.45;5.72;;;;;;;;;;6276209;28;20222;-71
2022/03/11 13:31:49;;;;;;;7.53;5.68;;;;;;;;;;6293382;28;20226;-71
2022/03/11 13:35:10;;;;;;;9.35;6.22;;;;;;;;;;6303603;28;20222;-71
2022/03/11 13:38:46;;;;;;;8.48;6.90;;;;;;;;;;6305176;28;20242;-72
2022/03/11 13:42:07;;;;;;;8.27;6.38;;;;;;;;;;6287857;28;20243;-71
2022/03/11 13:45:30;;;;;;;9.35;6.65;;;;;;;;;;6276090;28;20304;-72
2022/03/11 13:48:57;;;;;;;9.57;7.00;;;;;;;;;;6279117;28;20239;-72
2022/03/11 13:52:19;;;;;;;7.65;6.22;;;;;;;;;;6289212;28;20219;-72
2022/03/11 13:55:40;;;;;;;7.10;6.40;;;;;;;;;;6278315;28;20303;-71
2022/03/11 13:59:06;;;;;;;7.80;7.00;;;;;;;;;;6291930;27;20230;-72
2022/03/11 14:02:31;;;;;;;8.17;6.83;;;;;;;;;;6303883;28;20604;-71
2022/03/11 14:05:54;;;;;;;10.25;7.43;;;;;;;;;;6303718;28;20235;-71
2022/03/11 14:09:15;;;;;;;7.68;6.60;;;;;;;;;;6299905;28;20234;-72
2022/03/11 14:12:35;;;;;;;8.30;6.50;;;;;;;;;;6293933;28;20641;-74
2022/03/11 14:16:06;;;;;;;7.53;6.53;;;;;;;;;;6264663;28;20240;-70
2022/03/11 14:19:29;;;;;;;7.37;6.43;;;;;;;;;;6301159;28;20242;-70
2022/03/11 14:22:50;;;;;;;9.60;6.15;;;;;;;;;;6291944;27;20241;-70
2022/03/11 14:26:11;;;;;;;7.97;7.20;;;;;;;;;;6315738;27;20227;-70
2022/03/11 14:29:32;;;;;;;10.13;7.07;;;;;;;;;;6306847;28;20231;-70
2022/03/11 14:32:53;;;;;;;6.47;5.80;;;;;;;;;;6302647;28;20318;-69
2022/03/11 14:36:15;;;;;;;10.30;6.83;;;;;;;;;;6299300;28;20322;-71
2022/03/11 14:39:36;;;;;;;7.70;6.10;;;;;;;;;;6299616;28;20230;-70
2022/03/11 14:42:57;;;;;;;10.53;7.63;;;;;;;;;;6288750;28;20231;-70
2022/03/11 14:46:18;;;;;;;7.80;7.10;;;;;;;;;;6304363;28;20224;-70
2022/03/11 14:49:43;;;;;;;7.37;6.60;;;;;;;;;;6298535;28;20231;-70
2022/03/11 14:53:05;;;;;;;6.70;5.70;;;;;;;;;;6295618;28;20337;-71
2022/03/11 14:56:26;;;;;;;8.43;6.67;;;;;;;;;;6300731;28;20502;-73
2022/03/11 14:59:47;;;;;;;10.03;7.20;;;;;;;;;;6289018;28;20234;-72
2022/03/11 15:03:09;;;;;;;8.73;6.93;;;;;;;;;;6305577;28;20219;-73
2022/03/11 15:06:30;;;;;;;8.43;7.03;;;;;;;;;;6296051;28;20321;-71
2022/03/11 15:09:52;;;;;;;11.60;7.67;;;;;;;;;;6296894;28;20608;-70
2022/03/11 15:13:13;;;;;;;8.03;6.43;;;;;;;;;;6296883;28;20234;-71
2022/03/11 15:16:33;;;;;;;9.80;6.77;;;;;;;;;;6298766;28;20234;-71
2022/03/11 15:19:54;;;;;;;7.90;7.17;;;;;;;;;;6282701;28;23424;-70
2022/03/11 15:23:15;;;;;;;6.50;5.77;;;;;;;;;;6263677;28;20345;-70
2022/03/11 15:26:37;;;;;;;9.40;6.00;;;;;;;;;;6294089;28;20230;-70
2022/03/11 15:30:02;;;;;;;7.70;6.57;;;;;;;;;;6296326;28;20231;-70
2022/03/11 15:33:23;;;;;;;12.23;6.97;;;;;;;;;;6287120;28;20233;-70
2022/03/11 15:36:44;;;;;;;9.73;8.00;;;;;;;;;;6272551;28;20235;-71
2022/03/11 15:40:06;;;;;;;6.40;5.50;;;;;;;;;;6270897;28;20239;-70
2022/03/11 15:43:29;;;;;;;6.77;5.40;;;;;;;;;;6269798;28;20251;-70
2022/03/11 15:46:50;;;;;;;7.57;6.47;;;;;;;;;;6299476;28;20952;-71
2022/03/11 15:50:11;;;;;;;9.07;6.13;;;;;;;;;;6295463;28;20219;-71
2022/03/11 15:53:32;;;;;;;8.13;6.30;;;;;;;;;;6283007;28;21727;-71
2022/03/11 15:56:54;;;;;;;11.50;8.17;;;;;;;;;;6292057;28;20622;-71
2022/03/11 16:00:18;;;;;;;10.10;6.73;;;;;;;;;;6294841;28;20620;-70
2022/03/11 16:03:39;;;;;;;8.87;8.03;;;;;;;;;;6300043;28;20230;-71
2022/03/11 16:07:00;;;;;;;9.67;7.73;;;;;;;;;;6295334;28;20230;-69
2022/03/11 16:10:25;;;;;;;7.90;7.20;;;;;;;;;;6296635;28;20234;-71
2022/03/11 16:13:46;;;;;;;6.87;6.17;;;;;;;;;;6300798;28;20264;-71
2022/03/11 16:17:09;;;;;;;9.77;7.33;;;;;;;;;;6298955;28;20226;-72
2022/03/11 16:20:30;;;;;;;10.23;7.50;;;;;;;;;;6296062;28;20265;-72
2022/03/11 16:23:51;;;;;;;8.53;7.63;;;;;;;;;;6273764;28;20521;-72
2022/03/11 16:27:11;;;;;;;7.73;7.00;;;;;;;;;;6275881;28;20247;-73
2022/03/11 16:30:33;;;;;;;7.77;7.07;;;;;;;;;;6278889;28;20235;-70
2022/03/11 16:33:55;;;;;;;8.10;6.80;;;;;;;;;;6283572;28;20227;-70
2022/03/11 16:37:16;;;;;;;8.73;7.23;;;;;;;;;;6280145;28;20231;-72
2022/03/11 16:40:37;;;;;;;7.97;6.83;;;;;;;;;;6280977;28;20235;-69
2022/03/11 16:43:58;;;;;;;8.87;6.43;;;;;;;;;;6306049;28;20254;-69
2022/03/11 16:47:19;;;;;;;7.57;6.87;;;;;;;;;;6306178;28;20218;-70
2022/03/11 16:50:42;;;;;;;9.90;8.10;;;;;;;;;;6306977;28;20234;-69
2022/03/11 16:54:03;;;;;;;7.47;6.43;;;;;;;;;;6307256;28;20329;-71
2022/03/11 16:57:25;;;;;;;10.20;8.50;;;;;;;;;;6309151;28;20230;-71
2022/03/11 17:00:47;;;;;;;8.90;7.37;;;;;;;;;;6278894;28;20231;-70
2022/03/11 17:04:08;;;;;;;15.70;11.43;;;;;;;;;;6299552;28;20235;-71
2022/03/11 17:07:30;;;;;;;7.90;6.73;;;;;;;;;;6307427;28;20231;-71
2022/03/11 17:10:51;;;;;;;8.53;7.73;;;;;;;;;;6297654;28;20862;-70
2022/03/11 17:14:13;;;;;;;9.87;7.40;;;;;;;;;;6289703;28;20514;-71
2022/03/11 17:17:34;;;;;;;10.07;7.50;;;;;;;;;;6285395;28;20224;-70
2022/03/11 17:20:55;;;;;;;9.50;8.60;;;;;;;;;;6277492;28;20616;-71
2022/03/11 17:24:17;;;;;;;10.83;8.03;;;;;;;;;;6282966;28;20228;-71
2022/03/11 17:27:37;;;;;;;8.97;8.07;;;;;;;;;;6312425;28;20235;-71
2022/03/11 17:31:00;;;;;;;9.60;8.33;;;;;;;;;;6307518;28;20494;-71
2022/03/11 17:34:21;;;;;;;11.00;7.87;;;;;;;;;;6302705;28;20218;-71
2022/03/11 17:37:42;;;;;;;9.50;7.73;;;;;;;;;;6313208;28;20222;-71
2022/03/11 17:41:04;;;;;;;9.73;7.97;;;;;;;;;;6311914;28;20254;-70
2022/03/11 17:44:25;;;;;;;12.70;9.87;;;;;;;;;;6312391;27;20222;-70
2022/03/11 17:47:46;;;;;;;10.37;8.33;;;;;;;;;;6306712;28;20320;-71
2022/03/11 17:51:08;;;;;;;9.23;8.33;;;;;;;;;;6308382;28;20248;-71
2022/03/11 17:54:30;;;;;;;9.03;7.90;;;;;;;;;;6303613;28;20888;-72
2022/03/11 17:57:53;;;;;;;12.27;9.37;;;;;;;;;;6295875;28;20226;-71
2022/03/11 18:01:15;;;;;;;8.47;7.60;;;;;;;;;;6307308;28;20229;-71
2022/03/11 18:04:36;;;;;;;13.37;11.97;;;;;;;;;;6309014;28;20750;-71
2022/03/11 18:07:57;;;;;;;9.67;7.33;;;;;;;;;;6303443;28;20231;-70
2022/03/11 18:11:18;;;;;;;7.93;7.13;;;;;;;;;;6299494;28;20230;-71
2022/03/11 18:14:40;;;;;;;11.00;9.17;;;;;;;;;;6302097;28;20301;-71
2022/03/11 18:18:01;;;;;;;11.07;9.13;;;;;;;;;;6318516;28;20226;-71
2022/03/11 18:21:22;;;;;;;9.33;7.63;;;;;;;;;;6310956;28;20221;-70
2022/03/11 18:24:43;;;;;;;10.37;8.43;;;;;;;;;;6297185;28;20238;-70
2022/03/11 18:28:04;;;;;;;19.30;14.53;;;;;;;;;;6312004;28;20332;-70
2022/03/11 18:31:28;;;;;;;11.00;8.57;;;;;;;;;;6301996;28;20234;-70
2022/03/11 18:34:49;;;;;;;8.17;7.37;;;;;;;;;;6292241;28;20227;-71
2022/03/11 18:38:12;;;;;;;9.83;8.83;;;;;;;;;;6277884;28;20326;-70
2022/03/11 18:41:33;;;;;;;10.57;9.40;;;;;;;;;;6299630;28;20229;-71
2022/03/11 18:44:54;;;;;;;9.87;8.90;;;;;;;;;;6308977;28;20230;-70
2022/03/11 18:48:16;;;;;;;9.87;8.13;;;;;;;;;;6306446;28;20623;-70
2022/03/11 18:51:37;;;;;;;8.73;7.43;;;;;;;;;;6300551;28;20226;-69
2022/03/11 18:54:59;;;;;;;11.97;9.03;;;;;;;;;;6309379;28;20223;-70
2022/03/11 18:58:20;;;;;;;10.17;7.30;;;;;;;;;;6306503;28;20805;-70
2022/03/11 19:01:41;;;;;;;9.00;7.27;;;;;;;;;;6308088;28;20685;-70
2022/03/11 19:05:05;;;;;;;10.90;8.53;;;;;;;;;;6289073;28;20231;-69
2022/03/11 19:08:26;;;;;;;11.30;10.13;;;;;;;;;;6306084;28;20223;-71
2022/03/11 19:11:47;;;;;;;10.90;9.00;;;;;;;;;;6278268;28;20314;-70
2022/03/11 19:15:10;;;;;;;9.50;6.97;;;;;;;;;;6276905;28;20223;-71
2022/03/11 19:18:32;;;;;;;9.53;8.53;;;;;;;;;;6301870;28;20978;-70
2022/03/11 19:21:54;;;;;;;8.93;7.67;;;;;;;;;;6301663;28;20223;-70
2022/03/11 19:25:14;;;;;;;10.40;8.27;;;;;;;;;;6304070;28;20547;-71
2022/03/11 19:28:37;;;;;;;9.90;7.27;;;;;;;;;;6301607;28;20301;-70
2022/03/11 19:32:00;;;;;;;11.87;8.17;;;;;;;;;;6301171;28;20256;-70
2022/03/11 19:35:22;;;;;;;10.20;7.63;;;;;;;;;;6273250;28;20234;-70
2022/03/11 19:38:47;;;;;;;9.17;8.37;;;;;;;;;;6280864;28;20254;-70
2022/03/11 19:42:15;;;;;;;7.83;7.07;;;;;;;;;;6280526;28;20226;-71
2022/03/11 19:45:35;;;;;;;7.30;6.50;;;;;;;;;;6300918;28;20607;-71
2022/03/11 19:48:56;;;;;;;8.30;6.70;;;;;;;;;;6285695;28;20663;-71
2022/03/11 19:52:17;;;;;;;9.20;7.10;;;;;;;;;;6304027;28;20230;-70
2022/03/11 19:55:42;;;;;;;13.47;6.73;;;;;;;;;;6286854;28;20227;-71
2022/03/11 19:59:06;;;;;;;9.60;6.80;;;;;;;;;;6301750;28;20227;-71
2022/03/11 20:02:28;;;;;;;7.80;7.00;;;;;;;;;;6307443;28;20222;-71
2022/03/11 20:05:49;;;;;;;7.20;6.50;;;;;;;;;;6309260;28;20235;-71